ěÝzenÝ letovÚho provozu ╚eskÚ republiky
Letiste: LKKB Aktualizace: 28.03.2023 18:29:38  UTC
 METAR LKKB 28.03. 18:30 ...
METAR LKKB 281830Z 27004KT CAVOK 03/M05 Q1024 NOSIG RMK BLU BLU=
 TAF LKKB 28.03. 17:00 ...
TAF LKKB 281700Z 2818/2918 20006KT CAVOK      BECMG 2907/2909 BKN028      PROB30 TEMPO 2908/2911 7000 RA OVC025      BECMG 2916/2918 CAVOK=